Time;durP1;ratioP1;P1;durP2;ratioP2;P2;SDS_P1;SDS_P2;PMS_P1;PMS_P2;Temp;Humidity;BMP_temperature;BMP_pressure;BME280_temperature;BME280_humidity;BME280_pressure;Samples;Min_cycle;Max_cycle;Signal;HPM_P1;HPM_P2
2021/12/24 00:01:15;;;;;;;24.95;14.32;;;;;;;4.00;100.00;98740.88;5037676;28;20469;-84
2021/12/24 00:03:41;;;;;;;23.38;14.07;;;;;;;3.98;100.00;98746.22;5037217;28;20029;-84
2021/12/24 00:06:07;;;;;;;26.08;15.15;;;;;;;4.02;100.00;98745.22;5037717;28;20105;-84
2021/12/24 00:08:34;;;;;;;23.58;12.80;;;;;;;4.13;100.00;98752.84;5038356;28;20021;-85
2021/12/24 00:11:01;;;;;;;22.70;12.93;;;;;;;4.07;100.00;98754.81;5035568;28;20477;-83
2021/12/24 00:13:28;;;;;;;21.08;12.00;;;;;;;4.12;100.00;98751.09;5035212;28;20385;-84
2021/12/24 00:16:06;;;;;;;22.35;12.40;;;;;;;4.13;100.00;98752.84;5035998;28;20100;-84
2021/12/24 00:18:47;;;;;;;23.70;12.00;;;;;;;4.17;100.00;98742.22;5035717;28;20035;-84
2021/12/24 00:35:15;;;;;;;28.92;14.90;;;;;;;4.23;100.00;98720.88;5057603;28;20074;-77
2021/12/24 00:37:43;;;;;;;28.92;14.75;;;;;;;4.29;100.00;98715.41;5057521;28;20108;-78
2021/12/24 00:40:18;;;;;;;27.33;14.63;;;;;;;4.40;100.00;98725.69;5054592;28;20024;-77
2021/12/24 00:42:46;;;;;;;23.58;13.50;;;;;;;4.35;100.00;98720.53;5056320;28;20108;-77
2021/12/24 00:45:14;;;;;;;26.25;14.13;;;;;;;4.34;100.00;98715.28;5054811;28;20017;-77
2021/12/24 00:47:40;;;;;;;28.75;13.65;;;;;;;4.32;100.00;98725.91;5056730;28;20021;-78
2021/12/24 00:50:09;;;;;;;27.92;14.50;;;;;;;4.29;100.00;98715.41;5056948;28;20082;-77
2021/12/24 00:52:49;;;;;;;28.67;14.25;;;;;;;4.44;100.00;98729.06;5055668;28;20021;-78
2021/12/24 00:55:24;;;;;;;29.92;15.20;;;;;;;4.45;100.00;98720.25;5057455;28;20028;-78
2021/12/24 00:57:52;;;;;;;25.08;13.25;;;;;;;4.52;100.00;98726.22;5057736;28;20029;-78
2021/12/24 01:00:24;;;;;;;28.48;14.32;;;;;;;4.48;100.00;98720.16;5057692;28;20024;-78
2021/12/24 01:02:51;;;;;;;31.15;16.38;;;;;;;4.44;100.00;98722.03;5056101;28;20040;-78
2021/12/24 01:05:19;;;;;;;30.48;16.63;;;;;;;4.43;100.00;98716.78;5057118;28;20492;-78
2021/12/24 01:07:45;;;;;;;28.27;15.73;;;;;;;4.46;100.00;98711.38;5057490;28;20029;-78
2021/12/24 01:10:13;;;;;;;32.03;15.00;;;;;;;4.55;100.00;98711.13;5056071;28;20047;-78
2021/12/24 01:12:38;;;;;;;30.23;15.88;;;;;;;4.56;100.00;98715.50;5057910;28;20028;-78
2021/12/24 01:15:06;;;;;;;31.67;17.15;;;;;;;4.49;100.00;98721.88;5057365;28;20017;-78
2021/12/24 01:17:38;;;;;;;29.13;16.08;;;;;;;4.53;100.00;98706.81;5055301;28;20381;-77
2021/12/24 01:20:15;;;;;;;32.47;16.75;;;;;;;4.53;100.00;98718.25;5055527;28;20090;-77
2021/12/24 01:23:19;;;;;;;29.52;15.82;;;;;;;4.60;100.00;98707.47;5054534;28;20021;-77
2021/12/24 01:25:40;;;;;;;28.98;15.23;;;;;;;4.56;100.00;98702.28;5055476;28;20033;-77
2021/12/24 01:39:10;;;;;;;32.10;16.65;;;;;;;4.71;100.00;98699.22;5057654;28;20086;-78
2021/12/24 01:44:26;;;;;;;36.30;17.92;;;;;;;4.70;100.00;98687.75;5057443;28;20036;-78
2021/12/24 01:46:53;;;;;;;35.80;18.15;;;;;;;4.76;100.00;98692.88;5057404;28;20021;-78
2021/12/24 01:49:18;;;;;;;37.60;17.92;;;;;;;4.75;100.00;98685.84;5057151;28;20028;-78
2021/12/24 01:51:43;;;;;;;41.75;20.20;;;;;;;4.78;100.00;98688.38;5057362;28;20024;-78
2021/12/24 01:54:10;;;;;;;40.45;19.40;;;;;;;4.78;100.00;98690.16;5054170;28;20025;-77
2021/12/24 01:56:36;;;;;;;43.05;19.80;;;;;;;4.87;100.00;98678.44;5053420;28;20025;-77
2021/12/24 01:59:02;;;;;;;43.58;20.65;;;;;;;4.85;100.00;98686.41;5054418;28;20492;-78
2021/12/24 02:01:27;;;;;;;43.13;20.55;;;;;;;4.86;100.00;98690.78;5055027;28;20021;-77
2021/12/24 02:03:53;;;;;;;44.30;21.30;;;;;;;4.91;100.00;98675.63;5054948;28;20056;-77
2021/12/24 02:06:18;;;;;;;46.95;21.10;;;;;;;4.88;100.00;98669.56;5056213;28;20028;-78
2021/12/24 02:08:44;;;;;;;48.40;22.42;;;;;;;4.94;100.00;98664.09;5057596;28;20025;-78
2021/12/24 02:11:11;;;;;;;45.65;20.95;;;;;;;4.93;100.00;98675.56;5055885;28;20033;-77
2021/12/24 02:13:41;;;;;;;40.28;20.15;;;;;;;4.97;100.00;98660.47;5057113;28;20035;-78
2021/12/24 02:16:37;;;;;;;41.22;20.05;;;;;;;4.95;100.00;98657.88;5056759;28;20051;-78
2021/12/24 02:29:54;;;;;;;40.65;19.48;;;;;;;5.02;100.00;98650.59;5055518;28;20059;-77
2021/12/24 02:32:19;;;;;;;43.63;21.02;;;;;;;5.05;100.00;98652.28;5053794;28;20064;-77
2021/12/24 02:34:44;;;;;;;50.42;21.02;;;;;;;5.12;100.00;98661.75;5054273;28;20031;-78
2021/12/24 02:37:10;;;;;;;48.45;22.17;;;;;;;5.13;100.00;98658.16;5053433;28;20387;-76
2021/12/24 02:39:35;;;;;;;50.50;23.55;;;;;;;5.12;100.00;98646.75;5053052;28;20071;-76
2021/12/24 02:42:15;;;;;;;46.15;23.00;;;;;;;5.19;100.00;98647.38;5053107;28;20049;-77
2021/12/24 02:44:41;;;;;;;46.65;22.50;;;;;;;5.17;100.00;98628.06;5052150;28;20024;-77
2021/12/24 02:54:58;;;;;;;48.38;21.95;;;;;;;5.24;100.00;98632.22;5053694;28;20028;-77
2021/12/24 02:57:27;;;;;;;47.00;21.90;;;;;;;5.30;100.00;98622.31;5053233;28;20099;-77
2021/12/24 03:00:02;;;;;;;50.65;22.73;;;;;;;5.34;100.00;98626.56;5051954;28;20097;-77
2021/12/24 03:02:30;;;;;;;43.45;20.63;;;;;;;5.35;100.00;98625.69;5053510;28;20028;-77
2021/12/24 03:04:55;;;;;;;45.88;21.20;;;;;;;5.39;100.00;98616.69;5053712;28;20025;-77
2021/12/24 03:07:21;;;;;;;40.60;20.00;;;;;;;5.35;100.00;98605.38;5053832;28;20023;-76
2021/12/24 03:09:46;;;;;;;39.90;19.85;;;;;;;5.43;100.00;98610.38;5051856;28;20056;-77
2021/12/24 03:12:11;;;;;;;39.72;20.08;;;;;;;5.34;100.00;98611.56;5051669;28;20021;-76
2021/12/24 03:14:37;;;;;;;42.40;21.48;;;;;;;5.43;100.00;98617.47;5052923;28;20056;-77
2021/12/24 03:17:07;;;;;;;42.38;19.67;;;;;;;5.44;100.00;98604.16;5053317;28;20028;-77
2021/12/24 03:19:33;;;;;;;44.97;20.27;;;;;;;5.44;100.00;98598.88;5052712;28;20025;-77
2021/12/24 03:24:37;;;;;;;44.70;21.05;;;;;;;5.51;100.00;98598.66;5054213;28;20028;-77
2021/12/24 03:27:05;;;;;;;39.75;19.95;;;;;;;5.56;100.00;98591.41;5053305;28;20074;-77
2021/12/24 03:29:31;;;;;;;40.85;19.30;;;;;;;5.58;100.00;98589.56;5054213;28;20033;-77
2021/12/24 03:31:57;;;;;;;39.03;18.67;;;;;;;5.64;100.00;98584.06;5056079;28;20044;-78
2021/12/24 03:34:23;;;;;;;33.72;17.80;;;;;;;5.58;100.00;98594.84;5055828;28;20039;-77
2021/12/24 03:36:49;;;;;;;31.73;15.60;;;;;;;5.66;100.00;98584.84;5055581;28;20029;-77
2021/12/24 03:39:15;;;;;;;37.30;17.02;;;;;;;5.70;100.00;98582.94;5056437;28;20028;-77
2021/12/24 03:41:41;;;;;;;38.22;19.23;;;;;;;5.70;100.00;98590.88;5056564;28;20095;-77
2021/12/24 03:44:09;;;;;;;38.30;19.65;;;;;;;5.70;100.00;98583.81;5056416;28;20568;-76
2021/12/24 03:47:19;;;;;;;39.83;19.23;;;;;;;5.74;100.00;98578.41;5056258;28;20029;-76
2021/12/24 03:49:37;;;;;;;45.75;22.38;;;;;;;5.78;100.00;98577.34;5050470;28;20413;-76
2021/12/24 03:54:57;;;;;;;52.20;25.60;;;;;;;5.84;100.00;98570.97;5056322;28;20040;-77
2021/12/24 03:57:40;;;;;;;57.10;24.70;;;;;;;5.86;100.00;98563.81;5054770;28;20397;-77
2021/12/24 04:00:08;;;;;;;58.53;26.30;;;;;;;5.85;100.00;98570.88;5055970;28;20485;-77
2021/12/24 04:02:34;;;;;;;58.13;26.83;;;;;;;5.86;100.00;98564.69;5055899;28;20025;-76
2021/12/24 04:04:59;;;;;;;57.60;25.33;;;;;;;5.99;100.00;98566.84;5054624;28;20139;-76
2021/12/24 04:07:24;;;;;;;59.75;26.50;;;;;;;6.00;100.00;98574.75;5055866;28;20106;-76
2021/12/24 04:10:00;;;;;;;60.00;27.60;;;;;;;6.00;100.00;98568.59;5054633;28;20021;-77
2021/12/24 04:12:25;;;;;;;59.20;28.27;;;;;;;5.95;100.00;98581.16;5055762;28;20021;-77
2021/12/24 04:14:52;;;;;;;63.63;27.80;;;;;;;6.02;100.00;98572.03;5055737;28;20025;-77
2021/12/24 04:17:18;;;;;;;60.92;27.38;;;;;;;6.03;100.00;98579.06;5054363;28;20425;-76
2021/12/24 04:25:11;;;;;;;62.72;27.63;;;;;;;6.13;100.00;98569.84;5056426;28;20032;-76
2021/12/24 04:27:37;;;;;;;56.15;26.50;;;;;;;6.14;100.00;98570.72;5056106;28;20021;-77
2021/12/24 04:30:15;;;;;;;67.97;27.33;;;;;;;6.10;100.00;98569.13;5055421;28;20029;-77
2021/12/24 04:33:02;;;;;;;59.92;25.33;;;;;;;6.13;100.00;98567.19;5057020;28;20167;-77
2021/12/24 04:51:44;;;;;;;39.97;18.98;;;;;;;6.23;100.00;98585.41;5056648;28;20005;-77
2021/12/24 05:04:51;;;;;;;35.38;16.33;;;;;;;6.36;100.00;98580.47;5056305;28;20481;-77
2021/12/24 05:09:48;;;;;;;32.05;15.20;;;;;;;6.33;100.00;98584.13;5055894;28;20021;-77
2021/12/24 05:12:13;;;;;;;30.77;13.55;;;;;;;6.37;100.00;98588.34;5055922;28;20025;-77
2021/12/24 05:14:39;;;;;;;28.08;13.15;;;;;;;6.40;100.00;98591.81;5055821;28;20024;-77
2021/12/24 05:17:21;;;;;;;28.65;13.30;;;;;;;6.43;100.00;98583.72;5055340;28;20075;-77
2021/12/24 05:22:32;;;;;;;;;;;;;;;6.53;100.00;98608.09;5056449;28;20028;-77
2021/12/24 05:24:59;;;;;;;25.45;12.43;;;;;;;6.53;100.00;98593.03;5056407;28;19935;-77
2021/12/24 05:27:25;;;;;;;24.42;11.20;;;;;;;6.61;100.00;98590.09;5054947;28;20017;-77
2021/12/24 05:29:52;;;;;;;22.60;11.60;;;;;;;6.56;100.00;98586.75;5055874;28;20035;-77
2021/12/24 05:32:18;;;;;;;25.83;12.38;;;;;;;6.59;100.00;98587.50;5054691;28;20017;-77
2021/12/24 05:34:43;;;;;;;25.23;12.13;;;;;;;6.61;100.00;98611.31;5056190;28;20033;-77
2021/12/24 05:37:08;;;;;;;22.90;11.43;;;;;;;6.61;100.00;98613.09;5054524;28;20021;-76
2021/12/24 05:39:34;;;;;;;26.38;11.80;;;;;;;6.59;100.00;98599.91;5055175;28;20370;-77
2021/12/24 05:42:00;;;;;;;21.35;10.10;;;;;;;6.64;100.00;98589.09;5055153;28;20029;-77
2021/12/24 05:44:26;;;;;;;20.02;10.43;;;;;;;6.67;100.00;98596.94;5055392;28;20025;-77
2021/12/24 05:46:51;;;;;;;19.52;9.13;;;;;;;6.69;100.00;98593.28;5055313;28;20470;-77
2021/12/24 05:49:16;;;;;;;18.02;9.27;;;;;;;6.79;100.00;98593.75;5054362;28;20029;-77
2021/12/24 05:51:42;;;;;;;20.35;10.02;;;;;;;6.73;100.00;98598.44;5053198;28;20119;-77
2021/12/24 05:54:07;;;;;;;22.20;10.77;;;;;;;6.81;100.00;98591.91;5054802;28;20033;-77
2021/12/24 05:56:32;;;;;;;26.73;12.25;;;;;;;6.79;100.00;98604.38;5054214;28;20072;-77
2021/12/24 05:58:58;;;;;;;26.73;12.48;;;;;;;6.88;100.00;98589.00;5054038;28;20032;-77
2021/12/24 06:01:23;;;;;;;25.27;13.52;;;;;;;6.84;100.00;98595.34;5053987;28;20060;-77
2021/12/24 06:03:49;;;;;;;27.73;13.48;;;;;;;6.82;100.00;98593.63;5052984;28;20029;-77
2021/12/24 06:06:15;;;;;;;30.35;14.02;;;;;;;6.88;100.00;98594.31;5053970;28;20072;-77
2021/12/24 06:08:40;;;;;;;27.92;13.80;;;;;;;6.81;100.00;98594.56;5052879;28;20490;-77
2021/12/24 06:11:06;;;;;;;31.33;14.35;;;;;;;6.87;100.00;98605.84;5054125;28;20021;-77
2021/12/24 06:13:31;;;;;;;27.33;13.93;;;;;;;6.85;100.00;98597.09;5052427;28;20024;-76
2021/12/24 06:15:57;;;;;;;27.50;14.30;;;;;;;6.86;100.00;98596.13;5054384;28;20371;-78
2021/12/24 06:18:25;;;;;;;29.00;13.68;;;;;;;6.85;100.00;98600.59;5054288;28;20024;-76
2021/12/24 06:20:52;;;;;;;30.33;13.10;;;;;;;6.85;100.00;98605.03;5053908;28;20021;-76
2021/12/24 06:23:19;;;;;;;26.48;12.52;;;;;;;6.83;100.00;98591.81;5052150;28;20020;-76
2021/12/24 06:25:45;;;;;;;22.98;12.48;;;;;;;6.87;100.00;98589.91;5052078;28;20016;-76
2021/12/24 06:28:10;;;;;;;24.55;11.82;;;;;;;6.82;100.00;98595.41;5051843;28;20029;-76
2021/12/24 06:30:37;;;;;;;22.08;10.95;;;;;;;6.83;100.00;98602.44;5053136;28;20474;-76
2021/12/24 06:33:03;;;;;;;24.38;12.40;;;;;;;6.86;100.00;98606.75;5054514;28;20031;-78
2021/12/24 06:35:28;;;;;;;24.35;12.15;;;;;;;6.86;100.00;98614.72;5052341;28;20119;-77
2021/12/24 06:37:56;;;;;;;23.45;11.25;;;;;;;6.95;100.00;98609.03;5054053;28;20055;-78
2021/12/24 06:40:22;;;;;;;23.90;11.40;;;;;;;6.86;100.00;98599.66;5052995;28;20431;-77
2021/12/24 06:42:47;;;;;;;23.10;12.45;;;;;;;6.96;100.00;98609.91;5053213;28;20565;-76
2021/12/24 06:45:13;;;;;;;28.05;13.68;;;;;;;6.96;100.00;98602.78;5053165;28;20493;-76
2021/12/24 06:47:38;;;;;;;26.15;13.10;;;;;;;6.96;100.00;98605.44;5053176;28;20074;-76
2021/12/24 06:50:05;;;;;;;30.98;15.48;;;;;;;6.95;100.00;98609.03;5054361;28;20029;-76
2021/12/24 06:52:30;;;;;;;30.17;15.43;;;;;;;6.98;100.00;98614.22;5052180;28;20021;-76
2021/12/24 06:54:56;;;;;;;28.80;14.18;;;;;;;7.00;100.00;98601.75;5052652;28;20079;-77
2021/12/24 06:57:23;;;;;;;32.90;16.50;;;;;;;6.98;100.00;98614.22;5052981;28;20017;-76
2021/12/24 06:59:48;;;;;;;33.72;16.48;;;;;;;7.02;100.00;98610.50;5052912;28;20188;-76
2021/12/24 07:02:14;;;;;;;34.88;16.63;;;;;;;7.02;100.00;98605.19;5052938;28;20095;-76
2021/12/24 07:04:39;;;;;;;32.97;16.52;;;;;;;7.02;100.00;98605.19;5055473;28;20104;-76
2021/12/24 07:07:05;;;;;;;34.45;17.55;;;;;;;7.04;100.00;98605.97;5056995;28;20024;-76
2021/12/24 07:09:30;;;;;;;38.08;18.13;;;;;;;7.07;100.00;98622.69;5056898;28;20442;-76
2021/12/24 07:11:55;;;;;;;36.92;18.13;;;;;;;7.09;100.00;98610.22;5056946;28;20028;-76
2021/12/24 07:14:23;;;;;;;33.53;17.58;;;;;;;7.13;100.00;98611.84;5056811;28;20021;-76
2021/12/24 07:16:48;;;;;;;36.22;18.48;;;;;;;7.15;100.00;98602.00;5057441;28;20099;-76
2021/12/24 07:19:14;;;;;;;37.15;18.90;;;;;;;7.14;100.00;98613.53;5056412;28;20547;-77
2021/12/24 07:21:41;;;;;;;39.22;18.80;;;;;;;7.18;100.00;98608.97;5056341;28;20548;-76
2021/12/24 07:24:06;;;;;;;38.53;19.45;;;;;;;7.21;100.00;98599.09;5056674;28;20025;-77
2021/12/24 07:26:32;;;;;;;43.53;20.42;;;;;;;7.17;100.00;98610.75;5055796;28;20592;-76
2021/12/24 07:28:57;;;;;;;44.05;20.05;;;;;;;7.23;100.00;98618.47;5056699;28;20036;-76
2021/12/24 07:31:23;;;;;;;45.05;20.58;;;;;;;7.14;100.00;98613.53;5055557;28;20025;-76
2021/12/24 07:33:48;;;;;;;39.78;18.95;;;;;;;7.14;100.00;98609.09;5056657;28;20378;-76
2021/12/24 07:36:13;;;;;;;39.53;19.63;;;;;;;7.17;100.00;98616.06;5056688;28;20452;-77
2021/12/24 07:38:39;;;;;;;40.15;20.20;;;;;;;7.11;100.00;98625.16;5056438;28;20071;-76
2021/12/24 07:41:05;;;;;;;36.45;17.90;;;;;;;7.26;100.00;98623.66;5056677;28;20441;-76
2021/12/24 07:43:30;;;;;;;39.08;19.23;;;;;;;7.17;100.00;98618.72;5056353;28;20029;-76
2021/12/24 07:45:56;;;;;;;42.17;19.42;;;;;;;7.18;100.00;98625.78;5055076;28;20021;-76
2021/12/24 07:48:28;;;;;;;40.80;18.75;;;;;;;7.20;100.00;98623.03;5054979;28;20024;-76
2021/12/24 07:53:21;;;;;;;34.83;19.10;;;;;;;7.14;100.00;98624.16;5056512;28;20474;-76
2021/12/24 07:55:46;;;;;;;39.55;18.20;;;;;;;7.20;100.00;98628.34;5054894;28;20032;-76
2021/12/24 07:58:14;;;;;;;38.38;18.23;;;;;;;7.12;100.00;98626.91;5056133;28;20096;-77
2021/12/24 08:00:41;;;;;;;33.08;17.75;;;;;;;7.19;100.00;98637.25;5055624;28;20047;-76
2021/12/24 08:03:07;;;;;;;43.78;18.33;;;;;;;7.18;100.00;98615.16;5056110;28;20017;-76
2021/12/24 08:05:35;;;;;;;37.75;18.27;;;;;;;7.17;100.00;98628.47;5056633;28;20028;-76
2021/12/24 08:08:01;;;;;;;39.67;18.58;;;;;;;7.18;100.00;98625.78;5055960;28;20021;-76
2021/12/24 08:10:27;;;;;;;40.67;18.98;;;;;;;7.14;100.00;98625.03;5055857;28;20462;-77
2021/12/24 08:12:53;;;;;;;39.58;18.77;;;;;;;7.14;100.00;98629.47;5055779;28;20047;-76
2021/12/24 08:15:19;;;;;;;35.53;17.50;;;;;;;7.15;100.00;98632.06;5055448;28;20147;-76
2021/12/24 08:17:46;;;;;;;33.22;17.98;;;;;;;7.19;100.00;98624.00;5056180;28;20017;-76
2021/12/24 08:20:12;;;;;;;33.42;17.95;;;;;;;7.19;100.00;98627.47;5055624;28;20371;-76
2021/12/24 08:22:38;;;;;;;35.10;17.45;;;;;;;7.20;100.00;98631.88;5054234;28;20436;-76
2021/12/24 08:25:06;;;;;;;34.80;17.90;;;;;;;7.25;100.00;98636.97;5054309;28;20508;-76
2021/12/24 08:27:33;;;;;;;39.25;18.30;;;;;;;7.18;100.00;98644.34;5054141;28;20023;-76
2021/12/24 08:29:58;;;;;;;34.60;17.63;;;;;;;7.22;100.00;98639.75;5055681;28;20024;-77
2021/12/24 08:32:23;;;;;;;36.58;19.20;;;;;;;7.17;100.00;98647.94;5055702;28;20031;-76
2021/12/24 08:34:51;;;;;;;39.97;19.02;;;;;;;7.19;100.00;98642.56;5055537;28;20032;-77
2021/12/24 08:37:17;;;;;;;39.22;19.42;;;;;;;7.14;100.00;98645.41;5054058;28;20503;-77
2021/12/24 08:39:42;;;;;;;43.35;20.95;;;;;;;7.08;100.00;98630.63;5055764;28;20033;-76
2021/12/24 08:42:07;;;;;;;37.28;19.38;;;;;;;7.11;100.00;98640.25;5056696;28;20021;-77
2021/12/24 08:44:33;;;;;;;33.65;19.17;;;;;;;7.07;100.00;98622.69;5055418;28;20039;-76
2021/12/24 08:47:02;;;;;;;39.22;19.63;;;;;;;7.04;100.00;98632.53;5053886;28;20025;-76
2021/12/24 08:49:28;;;;;;;38.50;19.13;;;;;;;7.05;100.00;98625.44;5055249;28;20107;-76
2021/12/24 08:51:54;;;;;;;35.85;17.60;;;;;;;7.06;100.00;98636.91;5054051;28;20443;-77
2021/12/24 08:54:21;;;;;;;34.63;17.42;;;;;;;7.15;100.00;98636.50;5054960;28;20028;-76
2021/12/24 08:56:47;;;;;;;30.20;16.48;;;;;;;7.13;100.00;98638.38;5054857;28;20104;-76
2021/12/24 08:59:12;;;;;;;31.25;16.38;;;;;;;7.08;100.00;98635.06;5054878;28;20021;-76
2021/12/24 09:01:38;;;;;;;31.15;15.95;;;;;;;7.12;100.00;98648.13;5055338;28;20024;-77
2021/12/24 09:04:03;;;;;;;33.20;17.20;;;;;;;7.09;100.00;98647.38;5057051;28;20028;-77
2021/12/24 09:06:29;;;;;;;32.22;17.17;;;;;;;7.10;100.00;98643.81;5056741;28;20028;-77
2021/12/24 09:08:54;;;;;;;33.45;15.80;;;;;;;7.05;100.00;98651.97;5060940;28;20026;-77
2021/12/24 09:11:19;;;;;;;35.67;17.73;;;;;;;7.09;100.00;98648.25;5056641;28;20031;-76
2021/12/24 09:13:45;;;;;;;35.22;17.33;;;;;;;7.06;100.00;98650.19;5055079;28;20049;-77
2021/12/24 09:16:11;;;;;;;36.30;16.35;;;;;;;7.08;100.00;98648.31;5054491;28;20040;-77
2021/12/24 09:18:38;;;;;;;32.33;15.98;;;;;;;7.14;100.00;98656.00;5054657;28;20112;-76
2021/12/24 09:21:05;;;;;;;28.42;13.70;;;;;;;7.20;100.00;98658.41;5056553;28;20039;-76
2021/12/24 09:23:30;;;;;;;30.02;15.10;;;;;;;7.19;100.00;98655.84;5059771;28;20029;-77
2021/12/24 09:25:56;;;;;;;27.90;14.18;;;;;;;7.20;100.00;98657.56;5062041;28;20020;-77
2021/12/24 09:28:21;;;;;;;28.02;14.20;;;;;;;7.20;100.00;98660.22;5058885;28;20401;-77
2021/12/24 09:30:46;;;;;;;28.27;14.77;;;;;;;7.16;100.00;98654.19;5057108;28;20113;-77
2021/12/24 09:33:12;;;;;;;26.83;14.23;;;;;;;7.15;100.00;98657.75;5057690;28;20104;-77
2021/12/24 09:35:38;;;;;;;30.65;13.10;;;;;;;7.22;100.00;98658.34;5057612;28;20025;-77
2021/12/24 09:38:03;;;;;;;27.80;13.93;;;;;;;7.20;100.00;98663.72;5056541;28;20031;-77
2021/12/24 09:40:30;;;;;;;25.02;12.70;;;;;;;7.21;100.00;98665.47;5056127;28;20106;-77
2021/12/24 09:42:57;;;;;;;24.60;14.07;;;;;;;7.18;100.00;98662.06;5056745;28;20029;-77
2021/12/24 09:45:23;;;;;;;22.65;12.93;;;;;;;7.13;100.00;98659.63;5053803;28;20452;-77
2021/12/24 09:47:48;;;;;;;30.08;14.00;;;;;;;7.17;100.00;98663.84;5056034;28;20032;-77
2021/12/24 09:50:20;;;;;;;30.80;14.85;;;;;;;7.09;100.00;98663.31;5054945;28;20021;-77
2021/12/24 09:52:46;;;;;;;26.55;13.63;;;;;;;7.10;100.00;98657.09;5055727;28;20035;-77
2021/12/24 09:55:16;;;;;;;28.70;14.23;;;;;;;7.10;100.00;98667.69;5053304;28;20021;-77
2021/12/24 09:57:42;;;;;;;26.55;12.90;;;;;;;7.14;100.00;98666.63;5054383;28;20112;-77
2021/12/24 10:00:09;;;;;;;26.00;12.82;;;;;;;7.13;100.00;98671.09;5054001;28;20028;-77
2021/12/24 10:02:41;;;;;;;29.05;12.80;;;;;;;7.09;100.00;98655.34;5054349;28;20413;-77
2021/12/24 10:05:41;;;;;;;28.05;12.50;;;;;;;7.13;100.00;98667.56;5053304;28;20025;-77
2021/12/24 10:08:21;;;;;;;24.33;13.25;;;;;;;7.09;100.00;98660.66;5054361;28;20393;-78
2021/12/24 10:10:51;;;;;;;25.05;13.30;;;;;;;7.09;100.00;98658.00;5056763;28;20028;-76
2021/12/24 10:13:37;;;;;;;24.95;12.93;;;;;;;7.10;100.00;98662.38;5054683;28;20025;-76
2021/12/24 10:16:05;;;;;;;26.42;13.60;;;;;;;7.07;100.00;98660.72;5053762;28;20496;-76
2021/12/24 10:18:34;;;;;;;30.27;12.27;;;;;;;7.12;100.00;98656.09;5053620;28;20033;-74
2021/12/24 10:21:06;;;;;;;25.77;13.05;;;;;;;7.04;100.00;98664.38;5053734;28;20060;-76
2021/12/24 10:24:01;;;;;;;24.20;12.15;;;;;;;7.04;100.00;98658.19;5054738;28;20493;-77
2021/12/24 10:26:28;;;;;;;27.10;13.05;;;;;;;7.01;100.00;98651.22;5054243;28;20041;-77
2021/12/24 10:28:55;;;;;;;26.60;12.65;;;;;;;6.99;100.00;98655.75;5055565;28;20029;-78
2021/12/24 10:31:24;;;;;;;25.90;13.05;;;;;;;7.01;100.00;98656.53;5054120;28;20056;-77
2021/12/24 10:34:23;;;;;;;36.72;13.55;;;;;;;6.96;100.00;98650.56;5055107;28;20029;-76
2021/12/24 10:36:52;;;;;;;28.77;12.75;;;;;;;6.92;100.00;98651.63;5054135;28;20032;-76
2021/12/24 10:39:19;;;;;;;24.70;12.48;;;;;;;6.98;100.00;98662.00;5052592;28;20024;-77
2021/12/24 10:41:48;;;;;;;30.63;15.18;;;;;;;7.00;100.00;98648.66;5052771;28;20508;-76
2021/12/24 10:44:22;;;;;;;25.83;13.20;;;;;;;6.96;100.00;98642.59;5052938;28;20039;-77
2021/12/24 10:47:04;;;;;;;30.15;13.68;;;;;;;6.85;100.00;98639.53;5053725;28;20388;-76
2021/12/24 10:55:09;;;;;;;28.00;14.23;;;;;;;6.88;100.00;98644.72;5053292;28;20025;-76
2021/12/24 10:57:37;;;;;;;29.23;13.82;;;;;;;6.83;100.00;98634.28;5052912;28;20036;-76
2021/12/24 11:00:14;;;;;;;29.42;14.82;;;;;;;6.80;100.00;98643.22;5051542;28;20017;-76
2021/12/24 11:02:39;;;;;;;29.23;15.23;;;;;;;6.78;100.00;98629.16;5053690;28;20060;-77
2021/12/24 11:05:21;;;;;;;28.50;13.88;;;;;;;6.73;100.00;98641.75;5053263;28;20056;-76
2021/12/24 11:07:46;;;;;;;31.88;15.05;;;;;;;6.74;100.00;98632.88;5053259;28;20116;-76
2021/12/24 11:10:15;;;;;;;33.13;14.73;;;;;;;6.72;100.00;98636.53;5051680;28;20163;-75
2021/12/24 11:12:44;;;;;;;28.85;15.18;;;;;;;6.73;100.00;98638.22;5053100;28;20087;-76
2021/12/24 11:15:25;;;;;;;33.58;15.65;;;;;;;6.66;100.00;98645.59;5051607;28;20017;-76
2021/12/24 11:17:52;;;;;;;33.67;14.75;;;;;;;6.69;100.00;98640.16;5053576;28;20025;-76
2021/12/24 11:20:18;;;;;;;30.60;15.48;;;;;;;6.66;100.00;98648.25;5054123;28;20033;-76
2021/12/24 11:23:01;;;;;;;30.15;14.68;;;;;;;6.63;100.00;98651.00;5053731;28;20108;-77
2021/12/24 11:25:30;;;;;;;31.35;14.57;;;;;;;6.65;100.00;98638.56;5051674;28;20025;-76
2021/12/24 11:27:55;;;;;;;31.45;15.07;;;;;;;6.60;100.00;98654.66;5053598;28;20025;-77
2021/12/24 11:30:23;;;;;;;37.13;15.57;;;;;;;6.59;100.00;98632.59;5053432;28;20036;-77
2021/12/24 11:32:49;;;;;;;30.27;14.73;;;;;;;6.65;100.00;98649.19;5051407;28;20021;-76
2021/12/24 11:35:15;;;;;;;34.97;15.82;;;;;;;6.65;100.00;98646.53;5052588;28;20515;-75
2021/12/24 11:37:45;;;;;;;34.17;16.05;;;;;;;6.70;100.00;98642.75;5052978;28;20034;-76
2021/12/24 11:40:13;;;;;;;36.22;15.32;;;;;;;6.66;100.00;98640.28;5052654;28;20022;-76
2021/12/24 11:42:41;;;;;;;30.02;15.27;;;;;;;6.60;100.00;98641.38;5052423;28;20027;-76
2021/12/24 11:45:07;;;;;;;32.67;14.82;;;;;;;6.62;100.00;98646.66;5051253;28;20047;-76
2021/12/24 11:47:34;;;;;;;32.05;16.52;;;;;;;6.56;100.00;98643.31;5051304;28;20460;-76
2021/12/24 11:50:00;;;;;;;32.40;15.73;;;;;;;6.61;100.00;98651.09;5053599;28;20405;-76
2021/12/24 11:52:27;;;;;;;31.40;15.68;;;;;;;6.60;100.00;98646.69;5056201;28;20025;-76
2021/12/24 11:54:59;;;;;;;36.88;16.48;;;;;;;6.57;100.00;98642.38;5056235;28;20025;-75
2021/12/24 11:57:24;;;;;;;28.05;15.15;;;;;;;6.62;100.00;98654.59;5055407;28;20025;-77
2021/12/24 11:59:50;;;;;;;33.72;14.88;;;;;;;6.54;100.00;98653.13;5054694;28;20029;-76
2021/12/24 12:02:37;;;;;;;31.60;15.38;;;;;;;6.56;100.00;98651.28;5056144;28;20049;-76
2021/12/24 12:05:27;;;;;;;27.67;14.95;;;;;;;6.51;100.00;98652.38;5055764;28;20021;-75
2021/12/24 12:08:25;;;;;;;27.88;13.68;;;;;;;6.44;100.00;98641.16;5056176;28;20086;-76
2021/12/24 12:11:12;;;;;;;28.60;13.52;;;;;;;6.44;100.00;98646.47;5055658;28;20028;-76
2021/12/24 12:13:44;;;;;;;25.33;13.82;;;;;;;6.41;100.00;98642.13;5055162;28;20427;-76
2021/12/24 12:16:14;;;;;;;32.63;12.75;;;;;;;6.49;100.00;98633.88;5055688;28;20154;-76
2021/12/24 12:18:47;;;;;;;24.23;12.93;;;;;;;6.43;100.00;98636.75;5054591;28;20499;-76
2021/12/24 12:21:18;;;;;;;27.30;12.68;;;;;;;6.52;100.00;98636.38;5055959;28;20029;-75
2021/12/24 12:26:47;;;;;;;21.10;10.48;;;;;;;6.45;100.00;98642.88;5055702;28;20111;-74
2021/12/24 12:29:27;;;;;;;28.58;12.13;;;;;;;6.43;100.00;98634.13;5061712;22;20398;-89
2021/12/24 12:32:14;;;;;;;26.70;12.02;;;;;;;6.42;100.00;98627.94;5034670;28;20474;-90
2021/12/24 12:34:43;;;;;;;22.27;11.30;;;;;;;6.42;100.00;98633.25;5035699;28;20525;-88
2021/12/24 12:37:23;;;;;;;28.70;13.70;;;;;;;6.34;100.00;98641.50;5034851;28;20056;-88
2021/12/24 12:40:08;;;;;;;26.95;13.18;;;;;;;6.41;100.00;98641.28;5035067;28;20030;-87
2021/12/24 12:42:53;;;;;;;34.28;14.15;;;;;;;6.37;100.00;98636.09;5082252;23;20049;-84
2021/12/24 12:45:42;;;;;;;28.95;14.13;;;;;;;6.34;100.00;98633.53;5036431;28;20083;-84
2021/12/24 12:48:10;;;;;;;30.10;14.55;;;;;;;6.29;100.00;98624.06;5019738;28;20382;-83
2021/12/24 12:50:37;;;;;;;35.92;14.88;;;;;;;6.27;100.00;98632.06;5037030;28;20063;-84
2021/12/24 12:53:27;;;;;;;35.17;15.13;;;;;;;6.34;100.00;98620.28;5035706;28;20040;-84
2021/12/24 12:56:16;;;;;;;28.90;14.75;;;;;;;6.28;100.00;98617.91;5035128;28;20413;-85
2021/12/24 12:58:44;;;;;;;31.05;14.00;;;;;;;6.32;100.00;98626.56;5034964;28;20433;-85
2021/12/24 13:01:17;;;;;;;33.70;14.43;;;;;;;6.30;100.00;98624.00;5034126;28;20021;-85
2021/12/24 13:03:54;;;;;;;30.15;12.98;;;;;;;6.33;100.00;98626.53;5038307;28;20432;-84
2021/12/24 13:06:20;;;;;;;29.77;12.82;;;;;;;6.44;100.00;98625.25;5035800;28;20018;-85